Time;durP1;ratioP1;P1;durP2;ratioP2;P2;SDS_P1;SDS_P2;PMS_P1;PMS_P2;Temp;Humidity;BMP_temperature;BMP_pressure;BME280_temperature;BME280_humidity;BME280_pressure;Samples;Min_cycle;Max_cycle;Signal;HPM_P1;HPM_P2
2024/03/24 00:01:29;;;;;;;19.63;3.00;;;;;;;4.74;100.00;99273.00;5056704;28;20053;-76
2024/03/24 00:03:54;;;;;;;17.23;2.83;;;;;;;4.71;100.00;99267.06;5056366;28;20534;-76
2024/03/24 00:06:19;;;;;;;16.98;3.30;;;;;;;4.65;100.00;99259.03;5054207;28;20063;-76
2024/03/24 00:08:45;;;;;;;12.65;3.03;;;;;;;4.71;100.00;99277.72;5055412;28;20036;-75
2024/03/24 00:11:10;;;;;;;20.42;3.03;;;;;;;4.65;100.00;99283.81;5055245;28;20032;-76
2024/03/24 00:13:35;;;;;;;7.25;1.58;;;;;;;4.55;100.00;99277.22;5055438;28;20067;-75
2024/03/24 00:16:05;;;;;;;5.78;1.25;;;;;;;4.47;100.00;99280.88;5055584;28;20029;-75
2024/03/24 00:18:31;;;;;;;6.38;1.17;;;;;;;4.41;100.00;99281.66;5055145;28;20040;-75
2024/03/24 00:20:57;;;;;;;5.72;0.98;;;;;;;4.32;100.00;99274.84;5055440;28;20082;-75
2024/03/24 00:23:23;;;;;;;3.88;1.10;;;;;;;4.23;100.00;99280.31;5057895;28;20020;-75
2024/03/24 00:25:49;;;;;;;7.75;0.80;;;;;;;4.16;100.00;99283.97;5058785;28;20055;-75
2024/03/24 00:28:14;;;;;;;3.42;0.70;;;;;;;4.10;100.00;99268.75;5058660;28;20500;-75
2024/03/24 00:30:40;;;;;;;3.28;0.50;;;;;;;4.03;100.00;99273.22;5059711;28;20032;-77
2024/03/24 00:33:05;;;;;;;3.65;0.50;;;;;;;3.97;100.00;99267.69;5060310;28;20082;-76
2024/03/24 00:35:31;;;;;;;2.80;0.50;;;;;;;3.94;100.00;99261.88;5057865;28;20025;-74
2024/03/24 00:37:56;;;;;;;3.13;0.50;;;;;;;3.89;100.00;99257.16;5055763;28;20040;-74
2024/03/24 00:40:22;;;;;;;2.28;0.50;;;;;;;3.87;100.00;99255.69;5059134;28;20039;-74
2024/03/24 00:42:47;;;;;;;3.33;0.65;;;;;;;3.81;100.00;99244.03;5058759;28;20037;-73
2024/03/24 00:45:12;;;;;;;5.32;0.70;;;;;;;3.86;100.00;99251.41;5058795;28;20060;-73
2024/03/24 00:47:38;;;;;;;5.05;0.90;;;;;;;3.85;100.00;99249.78;5058523;28;20017;-74
2024/03/24 00:50:04;;;;;;;9.00;1.02;;;;;;;3.82;100.00;99240.34;5058604;28;20111;-74
2024/03/24 00:52:29;;;;;;;5.00;0.70;;;;;;;3.84;100.00;99242.78;5058020;28;20025;-74
2024/03/24 00:54:54;;;;;;;5.28;1.30;;;;;;;3.87;100.00;99240.56;5058534;28;20510;-73
2024/03/24 00:57:20;;;;;;;6.50;0.90;;;;;;;3.86;100.00;99241.59;5057245;28;20431;-73
2024/03/24 00:59:45;;;;;;;6.80;0.80;;;;;;;3.89;100.00;99248.38;5058021;28;20131;-74
2024/03/24 01:02:11;;;;;;;5.55;0.90;;;;;;;3.91;100.00;99231.19;5057525;28;20029;-75
2024/03/24 01:04:36;;;;;;;6.90;0.88;;;;;;;3.92;100.00;99235.50;5057219;28;20484;-73
2024/03/24 01:07:02;;;;;;;10.27;1.60;;;;;;;3.91;100.00;99233.03;5058185;28;20042;-74
2024/03/24 01:09:28;;;;;;;11.50;1.50;;;;;;;3.93;100.00;99226.47;5058552;28;20321;-74
2024/03/24 01:11:55;;;;;;;11.02;1.35;;;;;;;3.97;100.00;99235.75;5057119;28;20049;-75
2024/03/24 01:14:20;;;;;;;10.30;1.67;;;;;;;3.59;100.00;99165.28;5056971;28;20217;-75
2024/03/24 01:16:46;;;;;;;9.52;1.85;;;;;;;4.02;100.00;99224.50;5058104;28;20064;-75
2024/03/24 01:19:11;;;;;;;11.52;1.77;;;;;;;4.04;100.00;99222.47;5057513;28;20032;-73
2024/03/24 01:21:37;;;;;;;13.90;2.25;;;;;;;4.09;100.00;99227.19;5057573;28;20033;-75
2024/03/24 01:24:03;;;;;;;15.48;2.53;;;;;;;4.09;100.00;99222.69;5058339;28;20116;-74
2024/03/24 01:26:29;;;;;;;23.88;3.13;;;;;;;4.13;100.00;99217.81;5058432;28;20116;-75
2024/03/24 01:28:54;;;;;;;26.52;3.67;;;;;;;4.18;100.00;99218.88;5057666;28;20056;-75
2024/03/24 01:31:19;;;;;;;25.92;4.43;;;;;;;4.23;100.00;99219.06;5058023;28;20033;-75
2024/03/24 01:33:45;;;;;;;21.65;3.65;;;;;;;4.29;100.00;99209.50;5057385;28;20028;-74
2024/03/24 01:36:10;;;;;;;25.48;4.45;;;;;;;4.30;100.00;99211.13;5060463;28;20033;-74
2024/03/24 01:38:35;;;;;;;24.48;4.22;;;;;;;4.33;100.00;99213.41;5060413;28;20040;-76
2024/03/24 01:41:01;;;;;;;32.00;4.53;;;;;;;4.37;100.00;99203.16;5058027;28;20067;-75
2024/03/24 01:43:26;;;;;;;34.85;4.90;;;;;;;4.39;100.00;99203.81;5057930;28;20033;-75
2024/03/24 01:45:52;;;;;;;32.33;5.25;;;;;;;4.40;100.00;99208.09;5057604;28;20079;-75
2024/03/24 01:48:17;;;;;;;26.08;4.25;;;;;;;4.44;100.00;99206.69;5058029;28;20025;-74
2024/03/24 01:50:44;;;;;;;33.05;4.70;;;;;;;4.45;100.00;99205.69;5057626;28;20407;-75
2024/03/24 01:53:10;;;;;;;28.80;4.72;;;;;;;4.38;100.00;99188.84;5057286;28;20062;-74
2024/03/24 01:55:36;;;;;;;27.35;4.95;;;;;;;4.45;100.00;99208.34;5057776;28;20020;-75
2024/03/24 01:58:01;;;;;;;26.73;4.93;;;;;;;4.47;100.00;99211.63;5057432;28;20131;-75
2024/03/24 02:00:27;;;;;;;29.88;5.07;;;;;;;4.41;100.00;99191.13;5057353;28;20500;-75
2024/03/24 02:02:52;;;;;;;26.50;4.55;;;;;;;4.30;100.00;99181.03;5056472;28;20040;-74
2024/03/24 02:05:25;;;;;;;24.02;5.53;;;;;;;4.50;100.00;99199.75;5057584;28;20039;-74
2024/03/24 02:07:51;;;;;;;26.70;4.47;;;;;;;4.51;100.00;99204.06;5040112;28;20026;-75
2024/03/24 02:10:17;;;;;;;29.45;5.30;;;;;;;4.48;100.00;99200.78;5052790;28;20033;-75
2024/03/24 02:12:42;;;;;;;32.13;4.70;;;;;;;4.32;100.00;99173.66;5036731;28;20542;-74
2024/03/24 02:15:08;;;;;;;25.10;4.75;;;;;;;4.48;100.00;99191.97;5037761;28;20060;-75
2024/03/24 02:17:33;;;;;;;36.50;5.30;;;;;;;4.48;100.00;99206.09;5037429;28;20040;-75
2024/03/24 02:19:59;;;;;;;29.58;5.03;;;;;;;4.51;100.00;99193.41;5037414;28;20076;-75
2024/03/24 02:22:24;;;;;;;28.48;5.28;;;;;;;4.50;100.00;99192.56;5036001;28;20093;-74
2024/03/24 02:24:49;;;;;;;28.70;5.15;;;;;;;4.46;100.00;99184.16;5036936;28;20032;-75
2024/03/24 02:27:15;;;;;;;25.42;4.60;;;;;;;4.50;100.00;99189.91;5036640;28;20025;-75
2024/03/24 02:29:40;;;;;;;23.65;4.13;;;;;;;4.48;100.00;99190.13;5036885;28;20034;-74
2024/03/24 02:32:07;;;;;;;24.92;4.28;;;;;;;4.48;100.00;99183.97;5037165;28;20061;-75
2024/03/24 02:34:32;;;;;;;25.40;5.30;;;;;;;4.51;100.00;99193.41;5053991;28;20045;-74
2024/03/24 02:36:58;;;;;;;25.92;4.90;;;;;;;4.41;100.00;99175.97;5038176;28;20017;-74
2024/03/24 02:39:23;;;;;;;33.15;4.45;;;;;;;4.51;100.00;99186.25;5036975;28;20042;-75
2024/03/24 02:41:49;;;;;;;26.27;4.72;;;;;;;4.52;100.00;99182.53;5038890;28;20055;-75
2024/03/24 02:44:14;;;;;;;27.85;5.28;;;;;;;4.54;100.00;99183.19;5038750;28;20065;-75
2024/03/24 02:46:40;;;;;;;33.10;5.53;;;;;;;4.54;100.00;99177.03;5038881;28;20476;-75
2024/03/24 02:49:05;;;;;;;31.90;5.10;;;;;;;4.50;100.00;99173.91;5038844;28;20038;-76
2024/03/24 02:51:31;;;;;;;23.98;4.97;;;;;;;4.53;100.00;99181.50;5039183;28;20784;-75
2024/03/24 02:53:56;;;;;;;32.95;5.68;;;;;;;4.52;100.00;99179.88;5038881;28;20113;-75
2024/03/24 02:56:21;;;;;;;33.65;5.28;;;;;;;4.55;100.00;99178.66;5039191;28;20041;-75
2024/03/24 02:58:47;;;;;;;30.40;5.20;;;;;;;4.55;100.00;99179.50;5038762;28;20033;-76
2024/03/24 03:01:12;;;;;;;31.73;5.45;;;;;;;4.54;100.00;99177.03;5038941;28;20069;-76
2024/03/24 03:03:42;;;;;;;39.72;6.28;;;;;;;4.52;100.00;99179.06;5038322;28;20495;-76
2024/03/24 03:06:07;;;;;;;38.25;5.63;;;;;;;4.54;100.00;99180.50;5039458;28;20025;-75
2024/03/24 03:08:33;;;;;;;29.55;5.70;;;;;;;4.48;100.00;99173.31;5039194;28;20143;-75
2024/03/24 03:10:58;;;;;;;31.35;5.28;;;;;;;4.52;100.00;99166.56;5038682;28;20088;-76
2024/03/24 03:13:23;;;;;;;37.28;6.35;;;;;;;4.49;100.00;99156.31;5054385;28;20033;-76
2024/03/24 03:15:49;;;;;;;26.20;5.18;;;;;;;4.54;100.00;99164.53;5036537;28;20396;-75
2024/03/24 03:18:14;;;;;;;36.70;5.90;;;;;;;4.49;100.00;99158.97;5036184;28;20025;-76
2024/03/24 03:20:39;;;;;;;32.13;5.15;;;;;;;4.53;100.00;99162.06;5036018;28;20052;-77
2024/03/24 03:23:05;;;;;;;33.05;5.68;;;;;;;4.54;100.00;99169.84;5036280;28;20044;-76
2024/03/24 03:25:30;;;;;;;32.17;5.88;;;;;;;4.55;100.00;99163.50;5036412;28;20025;-75
2024/03/24 03:27:56;;;;;;;36.47;5.70;;;;;;;4.55;100.00;99163.50;5036177;28;20064;-75
2024/03/24 03:30:22;;;;;;;32.78;5.57;;;;;;;4.56;100.00;99159.00;5036029;28;20377;-76
2024/03/24 03:32:47;;;;;;;33.78;6.15;;;;;;;4.46;100.00;99149.53;5038004;28;20026;-75
2024/03/24 03:35:13;;;;;;;37.83;6.97;;;;;;;4.46;100.00;99151.38;5053522;28;20021;-75
2024/03/24 03:37:38;;;;;;;32.22;6.70;;;;;;;4.51;100.00;99153.47;5038347;28;20076;-76
2024/03/24 03:40:04;;;;;;;40.15;6.28;;;;;;;4.58;100.00;99160.44;5039174;28;20033;-75
2024/03/24 03:42:30;;;;;;;27.20;5.93;;;;;;;4.59;100.00;99161.25;5038877;28;20416;-76
2024/03/24 03:44:55;;;;;;;32.42;6.70;;;;;;;4.60;100.00;99161.06;5038292;28;20095;-76
2024/03/24 03:47:22;;;;;;;35.20;6.47;;;;;;;4.61;100.00;99160.03;5054177;28;20029;-76
2024/03/24 03:49:50;;;;;;;38.70;6.30;;;;;;;4.61;100.00;99159.22;5038289;28;20033;-75
2024/03/24 03:52:17;;;;;;;34.67;7.00;;;;;;;4.56;100.00;99143.00;5038484;28;20547;-77
2024/03/24 03:54:43;;;;;;;31.23;6.45;;;;;;;4.52;100.00;99131.13;5038452;28;20033;-77
2024/03/24 03:57:09;;;;;;;36.90;5.80;;;;;;;4.62;100.00;99151.03;5039322;28;20053;-75
2024/03/24 03:59:34;;;;;;;31.70;6.22;;;;;;;4.63;100.00;99147.31;5042385;28;20037;-77
2024/03/24 04:02:00;;;;;;;31.95;6.38;;;;;;;4.62;100.00;99147.53;5042379;28;20025;-75
2024/03/24 04:04:28;;;;;;;41.47;6.40;;;;;;;4.20;100.00;99080.22;5042432;28;20393;-76
2024/03/24 04:06:54;;;;;;;33.53;6.47;;;;;;;4.62;100.00;99148.34;5041612;28;20037;-77
2024/03/24 04:09:20;;;;;;;39.00;6.03;;;;;;;4.22;100.00;99079.00;5042056;28;20029;-76
2024/03/24 04:11:46;;;;;;;32.80;6.07;;;;;;;4.63;100.00;99149.16;5041502;28;20033;-76
2024/03/24 04:14:11;;;;;;;35.20;5.95;;;;;;;4.63;100.00;99155.31;5041872;28;20112;-77
2024/03/24 04:16:40;;;;;;;33.75;6.25;;;;;;;4.62;100.00;99152.88;5041658;28;20512;-76
2024/03/24 04:19:07;;;;;;;30.45;5.55;;;;;;;4.62;100.00;99151.03;5041416;28;20017;-77
2024/03/24 04:21:33;;;;;;;35.63;6.40;;;;;;;4.61;100.00;99149.38;5041990;28;20107;-77
2024/03/24 04:23:58;;;;;;;38.20;6.95;;;;;;;4.57;100.00;99140.16;5042131;28;20096;-75
2024/03/24 04:26:24;;;;;;;44.15;6.38;;;;;;;4.59;100.00;99146.09;5041626;28;20377;-76
2024/03/24 04:28:49;;;;;;;32.42;5.90;;;;;;;4.58;100.00;99155.13;5041645;28;20100;-75
2024/03/24 04:31:14;;;;;;;39.45;5.80;;;;;;;4.37;100.00;99118.81;5038530;28;20037;-75
2024/03/24 04:33:40;;;;;;;38.22;5.40;;;;;;;4.56;100.00;99143.00;5038210;28;20516;-76
2024/03/24 04:36:05;;;;;;;36.75;5.72;;;;;;;4.38;100.00;99127.59;5038423;28;20052;-75
2024/03/24 04:38:31;;;;;;;29.15;5.60;;;;;;;4.53;100.00;99146.88;5038280;28;20117;-75
2024/03/24 04:40:56;;;;;;;34.88;5.60;;;;;;;4.46;100.00;99138.06;5054071;28;20045;-76
2024/03/24 04:43:22;;;;;;;34.72;5.43;;;;;;;4.51;100.00;99148.94;5038880;28;20033;-76
2024/03/24 04:45:47;;;;;;;39.70;7.05;;;;;;;4.35;100.00;99130.66;5040079;28;20037;-77
2024/03/24 04:48:12;;;;;;;40.20;6.97;;;;;;;4.50;100.00;99146.47;5039544;28;20028;-76
2024/03/24 04:50:38;;;;;;;42.08;6.35;;;;;;;4.50;100.00;99144.63;5038357;28;20053;-74
2024/03/24 04:53:04;;;;;;;38.25;7.00;;;;;;;4.51;100.00;99148.13;5040050;28;20109;-76
2024/03/24 04:55:29;;;;;;;27.70;6.18;;;;;;;4.50;100.00;99152.63;5041247;28;20089;-75
2024/03/24 04:57:55;;;;;;;37.65;6.93;;;;;;;4.51;100.00;99151.63;5040980;28;20118;-77
2024/03/24 05:00:20;;;;;;;32.13;6.18;;;;;;;4.50;100.00;99157.13;5040380;28;20050;-77
2024/03/24 05:02:46;;;;;;;45.35;6.65;;;;;;;4.51;100.00;99156.94;5040787;28;20025;-76
2024/03/24 05:05:12;;;;;;;43.25;6.45;;;;;;;4.50;100.00;99151.78;5040855;28;20025;-76
2024/03/24 05:07:37;;;;;;;40.53;6.63;;;;;;;4.50;100.00;99155.28;5040976;28;20087;-76
2024/03/24 05:10:03;;;;;;;35.72;6.28;;;;;;;4.42;100.00;99144.81;5039723;28;20034;-76
2024/03/24 05:12:29;;;;;;;37.35;6.80;;;;;;;4.51;100.00;99161.44;5041025;28;20021;-75
2024/03/24 05:14:54;;;;;;;39.78;7.22;;;;;;;4.51;100.00;99169.44;5041147;28;20485;-75
2024/03/24 05:17:19;;;;;;;38.13;6.88;;;;;;;4.43;100.00;99151.78;5041182;28;20111;-75
2024/03/24 05:19:45;;;;;;;40.15;6.72;;;;;;;4.44;100.00;99145.44;5055095;28;20029;-77
2024/03/24 05:22:10;;;;;;;37.17;6.90;;;;;;;4.54;100.00;99161.06;5041556;28;20484;-76
2024/03/24 05:24:36;;;;;;;44.40;6.50;;;;;;;4.55;100.00;99166.16;5040106;28;20565;-75
2024/03/24 05:27:05;;;;;;;33.30;6.18;;;;;;;4.56;100.00;99169.66;5040751;28;20036;-76
2024/03/24 05:29:31;;;;;;;45.15;6.32;;;;;;;4.55;100.00;99160.84;5038151;28;20021;-76
2024/03/24 05:32:00;;;;;;;40.53;6.45;;;;;;;4.55;100.00;99158.19;5037149;28;20053;-77
2024/03/24 05:34:26;;;;;;;36.03;6.43;;;;;;;4.62;100.00;99163.53;5038060;28;20024;-77
2024/03/24 05:36:52;;;;;;;40.22;6.03;;;;;;;4.64;100.00;99161.50;5038207;28;20025;-78
2024/03/24 05:39:17;;;;;;;39.53;6.72;;;;;;;4.65;100.00;99166.59;5042707;28;20025;-77
2024/03/24 05:41:47;;;;;;;39.60;5.97;;;;;;;4.70;100.00;99163.31;5038818;28;20045;-76
2024/03/24 05:44:13;;;;;;;38.03;6.28;;;;;;;4.74;100.00;99166.44;5034465;28;20045;-76
2024/03/24 05:46:38;;;;;;;46.50;6.75;;;;;;;4.78;100.00;99167.66;5037261;28;20025;-76
2024/03/24 05:49:03;;;;;;;45.42;6.82;;;;;;;4.82;100.00;99172.38;5037369;28;20045;-76
2024/03/24 05:51:29;;;;;;;39.80;6.22;;;;;;;4.87;100.00;99166.47;5037862;28;20025;-76
2024/03/24 05:53:54;;;;;;;38.13;6.50;;;;;;;4.90;100.00;99166.03;5037032;28;20041;-76
2024/03/24 05:56:19;;;;;;;30.73;6.40;;;;;;;4.94;100.00;99165.44;5037485;28;20499;-76
2024/03/24 05:58:45;;;;;;;42.08;7.07;;;;;;;4.91;100.00;99163.19;5037282;28;20045;-76
2024/03/24 06:01:10;;;;;;;38.85;6.43;;;;;;;4.94;100.00;99168.09;5037415;28;20083;-76
2024/03/24 06:03:36;;;;;;;30.98;5.68;;;;;;;5.04;100.00;99178.38;5037165;28;20033;-74
2024/03/24 06:06:01;;;;;;;36.92;6.03;;;;;;;5.08;100.00;99184.94;5036801;28;20107;-76
2024/03/24 06:08:27;;;;;;;40.03;6.50;;;;;;;5.10;100.00;99177.56;5037620;28;20025;-75
2024/03/24 06:10:53;;;;;;;36.05;6.30;;;;;;;5.10;100.00;99182.91;5036044;28;20029;-75
2024/03/24 06:13:18;;;;;;;31.27;5.97;;;;;;;5.12;100.00;99180.00;5035346;28;20148;-76
2024/03/24 06:15:44;;;;;;;37.95;6.07;;;;;;;5.17;100.00;99180.25;5051009;28;20068;-75
2024/03/24 06:18:09;;;;;;;40.80;6.63;;;;;;;5.18;100.00;99188.03;5035794;28;20037;-75
2024/03/24 06:20:38;;;;;;;41.65;6.43;;;;;;;5.13;100.00;99166.50;5035866;28;20037;-77
2024/03/24 06:23:04;;;;;;;39.45;6.18;;;;;;;5.23;100.00;99178.56;5036018;28;20091;-76
2024/03/24 06:25:30;;;;;;;43.58;6.60;;;;;;;5.26;100.00;99188.84;5036421;28;20437;-76
2024/03/24 06:28:00;;;;;;;40.83;6.50;;;;;;;5.28;100.00;99176.13;5037221;28;20086;-76
2024/03/24 06:30:26;;;;;;;33.85;6.10;;;;;;;5.31;100.00;99189.06;5038533;28;20029;-77
2024/03/24 06:32:52;;;;;;;44.97;6.70;;;;;;;5.28;100.00;99174.28;5036665;28;20064;-76
2024/03/24 06:35:17;;;;;;;44.22;7.43;;;;;;;5.36;100.00;99192.75;5033109;28;20446;-75
2024/03/24 06:37:43;;;;;;;34.97;6.65;;;;;;;5.40;100.00;99193.19;5035440;28;20037;-76
2024/03/24 06:40:10;;;;;;;36.67;6.47;;;;;;;5.25;100.00;99166.69;5036084;28;20017;-76
2024/03/24 06:45:40;;;;;;;30.65;5.40;;;;;;;5.48;100.00;99184.94;5035672;28;20418;-76
2024/03/24 06:48:06;;;;;;;39.92;6.93;;;;;;;5.61;100.00;99192.13;5036889;28;20037;-76
2024/03/24 06:50:32;;;;;;;41.63;6.78;;;;;;;5.69;100.00;99191.09;5036636;28;20033;-76
2024/03/24 06:52:58;;;;;;;38.55;6.68;;;;;;;5.75;100.00;99192.94;5036229;28;20032;-76
2024/03/24 06:55:24;;;;;;;29.58;5.75;;;;;;;5.77;100.00;99181.03;5036441;28;20032;-76
2024/03/24 06:57:50;;;;;;;35.85;6.85;;;;;;;5.97;100.00;99198.91;5051547;28;20096;-76
2024/03/24 07:00:17;;;;;;;29.80;5.88;;;;;;;6.02;100.00;99194.56;5051652;28;20045;-77
2024/03/24 07:02:42;;;;;;;31.65;6.40;;;;;;;6.09;100.00;99198.06;5036457;28;20409;-75
2024/03/24 07:05:08;;;;;;;39.42;6.45;;;;;;;6.04;100.00;99189.84;5036571;28;20052;-75
2024/03/24 07:07:34;;;;;;;37.30;6.55;;;;;;;6.16;100.00;99200.72;5036261;28;20053;-77
2024/03/24 07:09:59;;;;;;;31.13;6.25;;;;;;;6.07;100.00;99183.25;5051641;28;20514;-76
2024/03/24 07:12:25;;;;;;;40.03;6.82;;;;;;;6.28;100.00;99207.03;5036322;28;20388;-78
2024/03/24 07:14:51;;;;;;;40.20;6.80;;;;;;;6.37;100.00;99202.28;5035512;28;20065;-77
2024/03/24 07:17:16;;;;;;;35.47;6.20;;;;;;;6.43;100.00;99206.78;5036088;28;20033;-76
2024/03/24 07:19:41;;;;;;;36.40;6.47;;;;;;;6.50;100.00;99204.06;5036268;28;20029;-72
2024/03/24 07:22:07;;;;;;;34.65;5.90;;;;;;;6.54;100.00;99205.28;5035367;28;20025;-74
2024/03/24 07:24:32;;;;;;;31.80;5.65;;;;;;;6.52;100.00;99191.31;5036049;28;20030;-74
2024/03/24 07:26:58;;;;;;;31.63;6.65;;;;;;;6.48;100.00;99185.56;5035151;28;20487;-74
2024/03/24 07:29:23;;;;;;;30.50;5.60;;;;;;;6.61;100.00;99205.25;5035721;28;20104;-74
2024/03/24 07:31:49;;;;;;;27.60;5.35;;;;;;;6.70;100.00;99204.81;5035896;28;20037;-72
2024/03/24 07:34:14;;;;;;;35.33;6.75;;;;;;;6.77;100.00;99202.09;5039957;28;20140;-74
2024/03/24 07:36:39;;;;;;;35.35;5.68;;;;;;;6.88;100.00;99211.28;5039754;28;20040;-78
2024/03/24 07:39:05;;;;;;;24.92;5.28;;;;;;;6.92;100.00;99208.00;5039596;28;20033;-73
2024/03/24 07:41:30;;;;;;;34.38;5.50;;;;;;;6.85;100.00;99195.69;5055119;28;20029;-74
2024/03/24 07:43:56;;;;;;;25.85;4.85;;;;;;;6.99;100.00;99214.13;5039441;28;20030;-70
2024/03/24 07:46:21;;;;;;;29.30;5.57;;;;;;;7.02;100.00;99218.22;5039077;28;20381;-71
2024/03/24 07:48:46;;;;;;;37.97;5.88;;;;;;;7.12;100.00;99207.03;5044642;28;20029;-75
2024/03/24 07:51:12;;;;;;;28.00;5.38;;;;;;;7.20;100.00;99212.13;5057971;28;20029;-76
2024/03/24 07:53:37;;;;;;;28.15;5.75;;;;;;;7.25;100.00;99213.13;5058689;28;20143;-76
2024/03/24 07:56:03;;;;;;;29.25;5.30;;;;;;;7.32;100.00;99210.41;5057971;28;20512;-75
2024/03/24 07:58:28;;;;;;;25.40;5.15;;;;;;;7.26;100.00;99203.25;5059258;28;20063;-76
2024/03/24 08:00:53;;;;;;;30.15;5.10;;;;;;;7.19;100.00;99189.09;5056653;28;20053;-74
2024/03/24 08:03:19;;;;;;;31.27;5.60;;;;;;;7.38;100.00;99214.88;5059532;28;20025;-74
2024/03/24 08:05:44;;;;;;;23.67;5.70;;;;;;;7.41;100.00;99217.09;5059062;28;20029;-76
2024/03/24 08:08:10;;;;;;;21.02;5.07;;;;;;;7.53;100.00;99212.69;5059330;28;20452;-77
2024/03/24 08:10:35;;;;;;;25.30;4.80;;;;;;;7.66;100.00;99210.97;5058983;28;20040;-76
2024/03/24 08:13:01;;;;;;;16.20;4.47;;;;;;;7.81;100.00;99226.69;5059234;28;20103;-77
2024/03/24 08:15:26;;;;;;;21.65;4.45;;;;;;;7.84;100.00;99227.06;5058678;28;20055;-78
2024/03/24 08:17:51;;;;;;;20.45;4.47;;;;;;;7.90;100.00;99230.72;5059381;28;20029;-75
2024/03/24 08:20:17;;;;;;;19.40;4.80;;;;;;;7.93;100.00;99217.72;5059156;28;20068;-77
2024/03/24 08:22:42;;;;;;;25.23;5.07;;;;;;;7.96;100.00;99225.31;5058805;28;20153;-76
2024/03/24 08:25:08;;;;;;;19.52;4.45;;;;;;;8.03;100.00;99230.59;5059131;28;20028;-77
2024/03/24 08:27:33;;;;;;;20.50;4.65;;;;;;;7.97;100.00;99218.09;5060298;28;20033;-77
2024/03/24 08:29:58;;;;;;;18.33;4.88;;;;;;;8.04;100.00;99229.53;5059765;28;20029;-79
2024/03/24 08:32:24;;;;;;;23.13;4.13;;;;;;;8.06;100.00;99230.16;5061673;28;20120;-80
2024/03/24 08:34:51;;;;;;;24.80;4.32;;;;;;;8.06;100.00;99227.47;5061425;28;20035;-80
2024/03/24 08:37:16;;;;;;;26.38;5.47;;;;;;;7.82;100.00;99185.50;5059691;28;20035;-80
2024/03/24 08:39:42;;;;;;;26.85;5.25;;;;;;;7.69;100.00;99167.69;5061344;28;20053;-79
2024/03/24 08:42:08;;;;;;;16.85;4.00;;;;;;;7.98;100.00;99211.72;5059945;28;20125;-80
2024/03/24 08:44:33;;;;;;;18.45;4.28;;;;;;;7.56;100.00;99139.19;5060261;28;20025;-79
2024/03/24 08:46:59;;;;;;;17.50;4.18;;;;;;;7.52;100.00;99136.13;5060098;28;20021;-79
2024/03/24 08:49:25;;;;;;;18.00;4.25;;;;;;;8.07;100.00;99221.06;5060202;28;20081;-79
2024/03/24 08:51:52;;;;;;;21.35;4.47;;;;;;;8.05;100.00;99206.28;5060188;28;20600;-78
2024/03/24 08:54:17;;;;;;;17.83;3.60;;;;;;;7.79;100.00;99157.28;5058803;28;20413;-79
2024/03/24 08:56:43;;;;;;;17.10;4.10;;;;;;;8.30;100.00;99235.69;5058463;28;20039;-78
2024/03/24 08:59:08;;;;;;;19.58;3.75;;;;;;;8.35;100.00;99239.34;5060148;28;20025;-79
2024/03/24 09:01:34;;;;;;;16.42;3.63;;;;;;;8.31;100.00;99246.19;5059329;28;20052;-79
2024/03/24 09:03:59;;;;;;;16.45;3.78;;;;;;;8.36;100.00;99240.97;5060212;28;20554;-79
2024/03/24 09:06:24;;;;;;;15.15;3.70;;;;;;;8.30;100.00;99241.84;5060379;28;20025;-79
2024/03/24 09:08:50;;;;;;;20.02;4.00;;;;;;;8.17;100.00;99217.88;5058898;28;20033;-79
2024/03/24 09:11:16;;;;;;;24.60;4.45;;;;;;;8.19;100.00;99226.53;5059889;28;20029;-78
2024/03/24 09:13:41;;;;;;;18.55;4.38;;;;;;;8.22;100.00;99218.03;5059497;28;20483;-79
2024/03/24 09:16:06;;;;;;;14.65;3.53;;;;;;;8.24;100.00;99230.19;5047401;28;20065;-78
2024/03/24 09:18:32;;;;;;;20.00;4.32;;;;;;;8.31;100.00;99231.94;5040034;28;20117;-79
2024/03/24 09:21:05;;;;;;;18.13;4.38;;;;;;;8.52;100.00;99249.50;5037781;28;20116;-78
2024/03/24 09:23:32;;;;;;;18.67;3.95;;;;;;;8.57;100.00;99250.44;5039984;28;20171;-78
2024/03/24 09:25:58;;;;;;;17.27;4.07;;;;;;;8.59;100.00;99247.56;5037524;28;20099;-78
2024/03/24 09:28:24;;;;;;;15.50;3.78;;;;;;;8.49;100.00;99215.09;5039523;28;20053;-79
2024/03/24 09:31:00;;;;;;;16.10;3.25;;;;;;;8.66;100.00;99251.78;5039104;28;20026;-80
2024/03/24 09:33:26;;;;;;;16.15;3.50;;;;;;;8.77;100.00;99244.03;5039506;28;20029;-80
2024/03/24 09:35:53;;;;;;;14.85;4.18;;;;;;;8.65;100.00;99215.31;5048393;28;20029;-80
2024/03/24 09:38:19;;;;;;;14.02;3.40;;;;;;;8.90;100.00;99242.00;5066306;28;20089;-79
2024/03/24 09:40:45;;;;;;;12.82;3.28;;;;;;;8.55;100.00;99192.75;5070720;28;20029;-80
2024/03/24 09:43:12;;;;;;;17.92;3.70;;;;;;;8.56;100.00;99187.16;5061178;28;20032;-79
2024/03/24 09:45:37;;;;;;;11.77;2.92;;;;;;;8.88;100.00;99236.06;5058309;28;20070;-80
2024/03/24 09:48:06;;;;;;;16.02;3.35;;;;;;;8.93;100.00;99246.09;5040806;28;20028;-80
2024/03/24 09:50:33;;;;;;;20.15;3.97;;;;;;;8.72;100.00;99206.38;5057825;28;20396;-77
2024/03/24 09:52:59;;;;;;;12.25;3.10;;;;;;;8.81;100.00;99219.22;5060467;28;20033;-79
2024/03/24 09:55:28;;;;;;;14.18;3.10;;;;;;;9.07;100.00;99254.78;5058136;28;20025;-80
2024/03/24 09:57:55;;;;;;;16.13;3.88;;;;;;;8.81;100.00;99203.13;5059034;28;20029;-79
2024/03/24 10:00:21;;;;;;;15.98;3.50;;;;;;;9.16;100.00;99253.41;5059141;28;20060;-79
2024/03/24 10:02:46;;;;;;;13.77;3.83;;;;;;;9.22;100.00;99244.47;5058054;28;20075;-80
2024/03/24 10:05:13;;;;;;;13.65;3.47;;;;;;;9.35;100.00;99260.38;5057937;28;20029;-80
2024/03/24 10:07:39;;;;;;;15.38;4.43;;;;;;;9.32;100.00;99258.16;5057780;28;20032;-80
2024/03/24 10:10:07;;;;;;;16.25;3.58;;;;;;;9.38;100.00;99251.88;5057067;28;20029;-80
2024/03/24 10:12:33;;;;;;;16.45;3.88;;;;;;;9.42;100.00;99254.91;5056955;28;20454;-81
2024/03/24 10:15:19;;;;;;;17.58;3.65;;;;;;;9.19;100.00;99228.81;5058255;28;20032;-79
2024/03/24 10:17:45;;;;;;;18.55;3.92;;;;;;;9.25;100.00;99233.28;5060418;28;20064;-80
2024/03/24 10:20:12;;;;;;;17.25;3.67;;;;;;;9.42;100.00;99249.53;5060366;28;20028;-79
2024/03/24 10:22:37;;;;;;;12.13;3.40;;;;;;;9.43;100.00;99251.16;5059535;28;20482;-81
2024/03/24 10:25:04;;;;;;;11.88;3.20;;;;;;;9.27;100.00;99225.81;5060855;28;20013;-81
2024/03/24 10:27:30;;;;;;;16.20;3.53;;;;;;;9.44;100.00;99235.88;5058914;28;20372;-81
2024/03/24 10:29:56;;;;;;;13.00;2.90;;;;;;;9.45;100.00;99264.38;5060893;28;20396;-78
2024/03/24 10:32:24;;;;;;;13.27;3.33;;;;;;;9.07;100.00;99230.63;5061086;28;20025;-80
2024/03/24 10:34:50;;;;;;;15.05;4.40;;;;;;;9.47;100.00;99271.16;5061902;28;20029;-80
2024/03/24 10:37:16;;;;;;;13.25;3.88;;;;;;;9.47;100.00;99264.94;5059898;28;20035;-79
2024/03/24 10:39:42;;;;;;;12.68;3.20;;;;;;;9.57;100.00;99262.50;5060439;28;20036;-79
2024/03/24 10:42:11;;;;;;;14.02;3.40;;;;;;;9.63;100.00;99259.75;5059849;28;20380;-79
2024/03/24 10:44:36;;;;;;;13.40;3.10;;;;;;;9.69;100.00;99257.19;5057979;28;20036;-79
2024/03/24 10:47:03;;;;;;;10.27;3.08;;;;;;;9.65;100.00;99257.63;5057169;28;20140;-80
2024/03/24 10:49:29;;;;;;;15.80;3.15;;;;;;;9.58;100.00;99245.38;5057705;28;20043;-78
2024/03/24 10:51:56;;;;;;;14.38;3.50;;;;;;;9.36;100.00;99219.06;5059590;28;20017;-79
2024/03/24 10:54:21;;;;;;;14.05;3.17;;;;;;;9.71;100.00;99258.59;5059163;28;20029;-81
2024/03/24 10:56:47;;;;;;;13.95;3.28;;;;;;;9.61;100.00;99266.41;5061624;28;20355;-79
2024/03/24 10:59:13;;;;;;;13.43;3.22;;;;;;;9.46;100.00;99266.81;5057256;28;20134;-77
2024/03/24 11:01:39;;;;;;;12.60;2.83;;;;;;;8.97;100.00;99212.41;5057701;28;20095;-78
2024/03/24 11:04:07;;;;;;;13.57;2.50;;;;;;;9.06;100.00;99258.50;5057813;28;20488;-78
2024/03/24 11:06:33;;;;;;;16.40;3.33;;;;;;;8.85;100.00;99263.31;5059627;28;20025;-78
2024/03/24 11:08:59;;;;;;;12.32;3.20;;;;;;;8.63;100.00;99264.81;5056901;28;20082;-78
2024/03/24 11:11:25;;;;;;;17.50;3.92;;;;;;;8.18;100.00;99232.94;5054779;28;20036;-77
2024/03/24 11:13:51;;;;;;;15.02;2.97;;;;;;;8.19;100.00;99261.34;5057339;28;20024;-76
2024/03/24 11:16:20;;;;;;;15.38;4.07;;;;;;;8.08;100.00;99265.59;5056686;28;20068;-73
2024/03/24 11:18:46;;;;;;;17.13;3.58;;;;;;;8.00;100.00;99261.31;5057978;28;20025;-73
2024/03/24 11:21:34;;;;;;;18.90;4.32;;;;;;;7.77;100.00;99263.78;5058045;28;20252;-71
2024/03/24 11:24:02;;;;;;;13.48;3.58;;;;;;;7.55;100.00;99255.31;5057046;28;20038;-71